Latest Observation

65 Stations

10 Minute Data
as of 5/4/26 12:53 PM PDT
Station Date Time Temp (°F) RH (%) Dew Pt (°F) Wind Spd (mph) Wind Dir (°) Wind Gust (mph) Wind Gst Dir (°) Latest Rain (In) Soil Moist (%) Soil Temp (°F) Daily Rain (In) Daily Min Temp (°F) Daily Max Temp (°F) Daily Max Wind (mph)
Hobart Mills 5/4/26 1250 45.2   15.4 97   57 44.5   8.2 0.4   4.6 ESE | 108 2.7   6.8 NE | 46 0.00 - 32.0   0.0 0.02 34.4   3.1 45.5   15.7 3.1   6.6
Prosser Dam 5/4/26 1250 45.1   17.0 91   52 42.6   6.2 3.9   2.7 ESE | 114 6.6   3.8 E | 100 0.00 20.7   0.1 47.6   0.5 0.06 37.2   2.0 45.2   17.5 7.7   2.7
West Incline Village 5/4/26 1250 39.8   16.3 94   56 38.3   7.6 1.6   1.0 SE | 136 5.1   3.1 NNE | 25 0.02 30.8   0.2 44.2   0.2 0.09 36.2   8.6 41.3   16.3 8.9   7.1
Incline Village (Fairview Blvd) 5/4/26 1250 40.4   19.2 96   57 39.5   4.8 0.0   1.2 N | 0 0.0   4.0 SW | 222 0.02 25.5   1.4 51.5   0.5 0.10 38.6   5.8 42.0   18.2 4.3   8.0
Incline Village (Diamond Peak) 5/4/26 1250 37.8   17.2 92   50 35.7   3.1 0.6   2.1 NNW | 345 1.5   5.5 NNW | 342 0.00 8.2   0.2 43.4   1.2 0.00 37.4   10.4 39.6   15.5 5.0   12.4
Incline Village (Mill Creek) 5/4/26 1250 41.7   16.6 88   48 38.4   4.5 2.0   1.7 N | 358 4.6   10.6 N | 354 0.02 9.7   0.1 46.2   0.1 0.07 37.8   7.7 43.6   16.0 5.2   16.5
Incline Village (Lakeshore Blvd) 5/4/26 1250 44.0   18.0 90   54 41.4   6.4 0.1   2.6 NNW | 335 1.5   6.8 N | 7 0.02 34.7   0.6 50.8   2.2 0.06 37.4   11.6 45.9   17.1 4.7   19.0
Glenbrook 5/4/26 1250 42.6   16.4 88   47 39.4   4.1 0.9   1.6 NE | 41 4.1   7.1 NE | 47 0.01 44.3   0.0 45.0   0.1 0.06 39.1   3.9 45.3   14.8 5.5   15.2
Zephyr Cove 5/4/26 1240 41.9   17.5 91   50 39.6   3.8 0.0   1.4 N | 0 0.0   4.0 S | 187 0.01 - 34.3   0.0 0.01 41.0   2.8 44.1   15.5 1.5   4.6
Kingsbury Grade 5/4/26 1250 40.7   15.8 93   47 38.8   3.0 0.1   4.1 SSW | 197 1.9   6.0 S | 178 0.00 5.2   0.8 50.5   3.2 0.04 38.5   7.9 43.1   14.0 5.5   7.7
South Daggett Pass (Ridge) 5/4/26 1250 37.5   14.9 97   46 36.8   1.7 1.8   3.5 WNW | 299 9.1   0.9 NW | 317 0.01 6.5   0.1 47.5   1.1 0.05 36.4   8.1 40.1   13.0 14.0   0.5
Palomino Valley 5/4/26 1250 62.8   8.4 45   23 41.4   10.3 11.7   0.8 WNW | 291 18.3   4.1 W | 280 0.00 6.7   0.1 62.1   0.2 0.00 47.4   2.5 64.2   8.1 18.3   4.1
East Cold Springs 5/4/26 1250 56.8   7.7 56   24 41.2   7.3 12.8   4.0 WNW | 299 21.5   5.0 NW | 304 0.00 1.5   0.0 54.2   0.6 0.00 43.5   4.6 57.5   7.3 21.7   3.0
Peavine 5/4/26 1250 52.4   8.0 63   25 40.2   5.2 6.7   4.1 N | 356 16.3   7.2 NNE | 17 0.00 - 53.4   0.0 0.00 41.4   4.1 53.7   7.3 22.8   7.6
West Verdi Peak 5/4/26 1250 47.2   13.8 75   35 39.8   3.3 3.8   2.6 SW | 216 10.4   2.0 WSW | 254 0.00 16.2   0.3 49.6   1.0 0.06 39.6   4.0 49.3   13.8 13.2   0.5
West Verdi 5/4/26 1250 52.1   12.7 70   36 42.6   7.0 2.4   4.0 ESE | 105 8.3   4.7 E | 99 0.00 7.6   0.1 57.7   1.6 0.04 44.0   3.2 55.5   10.6 14.9   0.6
South Verdi 5/4/26 1250 49.0   13.0 69   33 39.4   4.2 20.0   8.8 WSW | 248 25.3   8.8 WSW | 248 0.00 15.9   0.4 53.5   4.3 0.02 44.8   2.5 49.4   13.3 29.1   3.2
Northwest Reno 5/4/26 1250 52.7   12.3 63   29 40.4   4.9 20.8   15.6 W | 259 25.6   12.4 WSW | 249 0.00 23.5   0.2 60.0   1.0 0.02 47.8   1.3 55.4   10.4 29.6   11.5
North Lawton 5/4/26 1250 52.5   13.0 59   28 38.8   4.0 11.9   4.1 SSW | 207 16.5   5.7 SSW | 203 0.00 - 39.1   0.0 0.03 46.7   1.7 53.8   13.3 20.1   2.1
West Reno (Mogul) 5/4/26 1250 54.9   9.5 57   23 40.1   4.4 6.4   1.2 WSW | 238 10.7   0.9 SW | 222 0.00 38.7   0.1 60.7   0.3 0.03 46.6   1.5 55.5   9.4 17.3   2.0
Caughlin (Hunter Lake Trail) 9/16/25 0800 59.7   3.5 41   11 35.9   2.7 0.0   0.0 N | 0 0.0   0.0 ENE | 66 0.00 15.7   0.0 69.8   0.5 0.00 55.7   3.2 67.7   9.1 9.4   0.9
ArrowCreek 5/4/26 1250 52.2   12.2 66   32 41.2   5.6 7.5   2.7 S | 186 12.7   1.9 S | 169 0.00 - 32.0   0.0 0.05 45.5   3.5 53.7   11.2 13.5   0.6
Tracy 5/4/26 1250 55.7   16.2 64   43 43.9   13.9 5.2   4.0 SSW | 192 7.8   8.9 S | 182 0.04 7.8   0.1 62.5   0.1 0.05 52.8   1.6 58.6   13.9 21.7   3.2
Virginia Highlands 5/4/26 1250 46.6   17.2 81   55 41.2   12.3 6.2   1.9 SE | 145 14.8   3.6 SSE | 151 0.00 7.2   0.0 56.7   0.3 0.01 43.7   4.7 49.0   15.4 14.8   0.8
Virginia City 5/4/26 1250 43.0   19.2 92   64 41.0   12.1 6.7   1.3 SSW | 198 11.4   0.5 SSW | 211 0.00 8.3   0.1 53.8   0.3 0.05 42.4   8.4 49.5   13.5 26.1   12.2
Six Mile Canyon 9/9/25 0630 60.2   9.6 37   6 33.7   4.8 4.1   2.5 W | 277 6.1   2.9 WNW | 286 0.00 12.5   0.0 75.5   0.7 0.00 57.9   7.6 64.4   1.9 7.0   3.9
Mt Rose Highway 4/30/26 0510 40.8   4.7 47   13 22.3   1.3 2.3   0.2 WSW | 243 4.8   2.1 WSW | 246 0.00 24.1   0.3 43.0   0.8 0.00 40.5   4.7 43.0   5.3 7.7   0.4
Pleasant Valley 5/4/26 1250 50.5   17.2 78   46 43.8   7.0 9.9   4.9 SSW | 208 13.2   3.0 SSW | 210 0.00 2.8   0.0 60.7   1.3 0.01 43.3   2.5 52.0   16.3 13.2   0.9
New Washoe City 5/4/26 1250 48.4   16.5 79   45 42.2   5.8 4.0   4.2 S | 186 8.8   5.2 S | 173 0.02 4.5   0.1 57.9   0.8 0.04 42.4   2.6 52.1   13.5 10.8   5.6
Franktown Creek 5/4/26 1250 48.8   17.1 78   40 42.3   2.6 0.8   4.7 SSW | 211 5.8   4.6 SSW | 197 0.01 11.1   0.0 55.0   0.9 0.03 42.6   2.9 52.0   14.6 7.1   4.0
Musgrove Creek 5/4/26 1250 46.2   16.3 84   46 41.8   4.8 2.0   1.0 SE | 125 6.0   2.0 ESE | 118 0.02 44.3   4.5 53.1   0.2 0.05 42.7   5.0 51.9   11.2 11.3   2.6
East Carson 11/23/24 0110 28.6   28.4 - - 4.7   11.0 SW | 220 14.7   10.1 SW | 219 0.02 - 50.9   0.1 0.02 -25.9   79.1 42.9   14.6 16.0   10.7
Kings Canyon 5/4/26 1250 47.5   17.1 81   47 42.1   6.4 1.5   5.4 SSW | 196 3.2   9.9 S | 178 0.02 15.1   0.1 55.2   2.1 0.07 41.8   3.3 54.3   10.9 13.7   1.2
Carson City (Voltaire Canyon) 5/4/26 1250 48.2   17.7 75   45 40.5   6.8 4.1   4.4 NNW | 330 6.0   7.9 N | 1 0.00 2.8   0.0 61.8   0.7 0.00 46.4   2.8 54.4   12.0 24.1   4.1
Jacks Valley 5/4/26 1250 47.2   18.1 77   45 40.2   5.4 3.9   3.8 N | 352 8.8   6.5 N | 349 0.01 9.6   0.1 59.5   3.4 0.02 44.7   1.4 53.6   12.2 18.1   0.5
Genoa 5/4/26 1250 50.4   17.0 83   50 45.6   7.8 0.0   0.4 N | 0 0.0   2.9 WSW | 251 0.01 5.5   0.3 57.3   9.1 0.02 45.5   1.4 56.2   11.9 13.0   4.0
South Genoa (Walleys Hot Springs) 5/4/26 1250 51.9   13.7 70   28 42.5   0.5 7.9   0.3 NW | 326 13.0   2.4 N | 1 0.00 13.6   0.0 61.5   1.8 0.02 44.0   2.2 57.0   10.0 19.4   8.2
SW Gardnerville (HWY 88) 5/4/26 1250 52.2   11.3 71   31 43.0   4.3 11.7   7.5 NW | 326 17.6   11.4 WNW | 303 0.00 3.3   0.1 55.1   2.1 0.00 42.0   2.0 54.3   9.8 17.9   9.3
Sheridan 5/4/26 1250 52.8   11.8 63   26 40.5   2.8 8.2   6.7 NNW | 331 14.3   10.2 NW | 319 0.00 2.3   0.0 57.1   1.9 0.02 44.2   2.0 54.4   10.5 14.3   5.8
Ruhenstroth 5/4/26 1250 52.0   10.8 65   26 40.6   3.2 5.7   2.7 N | 1 11.0   1.7 NNW | 339 0.00 12.7   0.2 55.3   2.8 0.00 45.6   0.1 54.4   8.9 16.5   7.1
Double Spring 5/4/26 1250 48.9   8.9 70   30 39.5   5.7 10.7   0.9 NNW | 344 15.9   1.2 NNW | 338 0.00 28.4   0.0 52.9   3.1 0.07 39.0   1.8 49.8   8.4 20.4   5.7
North Topaz Lake 5/4/26 1250 52.0   5.7 61   19 39.1   4.0 10.2   5.9 WNW | 299 18.6   10.9 WNW | 282 0.00 9.1   0.2 58.6   4.6 0.02 45.0   3.9 52.8   8.2 25.0   5.2
Wild Oat Mountain 5/4/26 1250 49.3   8.3 63   23 37.3   4.0 11.8   10.2 NW | 315 22.8   16.6 NW | 319 0.00 16.5   0.1 56.1   2.5 0.00 43.8   4.6 52.3   6.3 23.5   0.5
Smith Valley 5/4/26 1250 56.1   10.7 51   22 38.2   4.4 10.7   3.5 N | 3 17.3   2.6 N | 0 0.00 5.9   0.1 58.9   2.1 0.00 45.2   2.2 59.0   8.4 22.8   8.2
Pine Grove Mountain 5/4/26 1250 36.6   14.9 91   55 34.1   8.7 9.6   2.7 NW | 321 18.6   1.5 NW | 315 0.01 14.5   0.0 47.0   2.8 0.02 36.5   5.7 43.5   9.9 22.6   4.8
Paradise Hill 5/4/26 1250 72.6   2.4 23   9 33.1   10.1 4.4   5.6 ESE | 114 10.4   6.6 ESE | 121 0.00 8.0   0.0 58.7   0.6 0.00 40.2   5.4 74.2   2.1 18.3   5.0
Winnemucca 5/4/26 1250 71.9   0.3 24   8 33.6   9.1 5.7   0.8 NNW | 343 14.4   1.7 NNW | 346 0.00 5.9   0.0 57.1   0.4 0.00 44.4   8.1 73.0   0.6 16.3   0.5
NE Elko 5/4/26 1250 68.7   0.5 21   6 27.6   7.8 2.8   3.7 E | 96 7.0   3.2 E | 84 0.00 12.3   0.1 56.9   0.9 0.00 33.5   6.9 70.2   0.0 18.8   6.4
North Elko 5/4/26 1250 66.4   0.1 24   7 28.1   8.2 7.0   4.2 SSW | 196 15.3   5.8 SSW | 192 0.00 28.4   0.0 55.4   0.5 0.00 45.5   3.9 67.5   0.4 15.3   4.1
South Elko 5/4/26 1250 64.3   2.2 28   10 30.1   8.4 4.1   0.0 NW | 318 11.3   2.6 NW | 314 0.00 18.7   0.2 54.8   0.1 0.00 49.8   0.1 124.7 14.7   2.6
Lamoille 1/28/26 1720 33.2   0.5 65   17 22.8   6.3 5.8   1.5 SSE | 166 7.7   1.9 SE | 139 0.00 12.2   0.0 33.4   0.1 0.02 23.5   2.0 36.5   5.9 25.6   17.4
Reid Gardner Sub 5/4/26 1250 77.0   11.6 19   8 32.1   3.9 10.9   7.2 S | 180 19.4   10.3 S | 177 0.00 24.6   0.1 72.1   1.2 0.00 64.2   15.9 77.6   12.1 25.2   10.6
Corn Creek 5/4/26 1250 70.5   10.9 22   8 29.6   2.7 22.3   7.6 ENE | 67 33.2   9.6 ENE | 74 0.00 3.9   0.1 73.1   1.4 0.00 59.2   2.6 71.4   11.1 33.9   6.2
Lucky Strike 5/4/26 1250 61.9   7.0 18   2 18.5   2.6 17.2   3.6 ESE | 110 24.6   3.2 E | 97 0.00 4.4   0.1 66.2   1.3 0.00 51.0   5.7 62.4   7.4 28.3   1.2
Lower Angel Peak 5/4/26 1250 57.8   5.2 15   6 11.0   12.0 7.1   1.1 SSE | 160 16.4   1.9 SSE | 153 0.00 10.1   0.3 54.6   0.3 0.00 41.5   4.4 58.8   6.1 25.1   5.2
Angel Peak 5/4/26 1250 45.2   6.8 42   14 23.6   3.4 4.2   8.9 W | 267 9.7   12.7 WNW | 292 0.00 3.4   0.1 51.8   1.4 0.00 38.3   6.0 48.6   6.9 34.5   2.7
Upper Kyle Canyon 5/4/26 1250 50.6   3.2 20   8 11.5   10.0 3.0   5.4 WNW | 288 11.0   4.5 NNW | 346 0.00 13.7   0.1 52.0   0.9 0.00 36.7   5.4 51.9   4.7 22.2   6.2
Mt Charleston 5/4/26 1250 49.7   5.5 27   0 16.7   5.0 6.3   2.0 SSW | 197 16.4   1.6 SSE | 147 0.00 18.4   0.1 48.2   0.3 0.00 39.3   4.9 51.4   7.0 20.5   6.1
Mid Kyle Canyon 5/4/26 1250 56.7   6.3 24   3 20.3   2.5 12.7   2.9 S | 189 21.6   4.1 S | 185 0.00 7.0   0.0 56.0   0.7 0.00 42.5   4.8 57.7   8.2 26.4   0.0
Blue Diamond 5/4/26 1250 67.5   12.7 25   12 30.7   5.2 15.0   7.1 NW | 319 22.5   7.8 NW | 318 0.00 3.5   0.0 68.4   1.1 0.00 54.7   8.5 68.5   12.6 23.8   3.4
Artesian Sub 5/4/26 1250 76.6   12.5 17   7 29.1   2.4 9.3   7.4 SE | 145 19.2   11.2 E | 101 0.00 13.3   0.1 73.7   0.3 0.00 65.1   2.2 77.9   12.1 21.7   12.5
North Henderson 5/4/26 1250 77.3   12.3 18   7 30.6   2.6 11.9   8.1 SW | 228 21.9   12.8 SSW | 206 0.00 8.8   0.3 79.2   0.6 0.00 66.4   4.1 78.0   12.3 23.8   7.7
Sandy Valley 5/4/26 1250 66.8   16.5 30   14 34.6   1.4 12.3   4.4 WSW | 256 20.0   5.7 SW | 224 0.00 4.5   0.0 74.8   0.8 0.00 55.0   0.6 67.4   17.7 23.1   8.3
Searchlight 5/4/26 1250 66.2   14.3 28   11 32.4   0.0 16.9   0.1 SSE | 164 26.4   0.2 SSE | 150 0.00 4.7   0.0 72.7   0.5 0.00 54.6   2.1 67.6   13.7 28.6   1.4
Laughlin 5/4/26 1250 77.4   17.2 30   15 43.7   3.0 15.6   4.6 SSE | 165 24.5   4.1 S | 171 0.00 4.1   0.0 83.9   0.6 0.00 71.9   3.3 82.7   12.7 25.8   2.7
Max     77.4 97 45.6 22.3 - 33.2 - 0.04 44.3 83.9 0.10 71.9 124.7 34.5
Avg     53.6 60 36.3 7.2 - 13.0 - 0.00 13.1 56.0 - - - -
Min     36.6 15 11.0 0.0 - 0.0 - 0.00 1.5 32.0 0.00 33.5 39.6 1.5